Time;durP1;ratioP1;P1;durP2;ratioP2;P2;SDS_P1;SDS_P2;PMS_P1;PMS_P2;Temp;Humidity;BMP_temperature;BMP_pressure;BME280_temperature;BME280_humidity;BME280_pressure;Samples;Min_cycle;Max_cycle;Signal;HPM_P1;HPM_P2
2022/04/07 00:01:36;;;;;;;10.68;4.30;;;;;;;16.54;44.76;96586.44;4439895;32;20137;-73
2022/04/07 00:04:03;;;;;;;11.60;4.75;;;;;;;16.57;44.72;96591.34;4439530;32;20104;-73
2022/04/07 00:06:30;;;;;;;10.57;4.00;;;;;;;16.40;44.65;96600.69;4440054;32;20108;-73
2022/04/07 00:09:00;;;;;;;8.35;3.80;;;;;;;14.96;47.98;96587.06;4439655;32;20102;-73
2022/04/07 00:11:27;;;;;;;12.05;4.70;;;;;;;14.06;50.84;96578.87;4439919;32;20107;-73
2022/04/07 00:13:54;;;;;;;10.15;4.85;;;;;;;12.39;58.04;96577.84;4439687;32;20761;-73
2022/04/07 00:16:22;;;;;;;11.05;5.03;;;;;;;11.83;60.28;96579.37;4439527;32;20177;-73
2022/04/07 00:18:49;;;;;;;10.52;5.05;;;;;;;12.39;59.48;96577.84;4440025;32;20093;-73
2022/04/07 00:21:24;;;;;;;9.88;4.60;;;;;;;13.42;55.23;96559.78;4441665;32;20152;-73
2022/04/07 00:23:53;;;;;;;10.65;4.75;;;;;;;11.57;61.62;96563.06;4441428;32;20093;-73
2022/04/07 00:26:20;;;;;;;10.18;4.70;;;;;;;13.93;53.87;96566.97;4441741;32;20089;-74
2022/04/07 00:28:47;;;;;;;10.50;4.55;;;;;;;12.93;56.90;96558.31;4427904;32;20101;-74
2022/04/07 00:31:14;;;;;;;13.00;5.07;;;;;;;14.16;52.54;96553.03;4427413;32;20078;-74
2022/04/07 00:33:41;;;;;;;12.65;5.18;;;;;;;15.10;49.45;96566.91;4441657;32;20085;-73
2022/04/07 00:36:08;;;;;;;12.23;5.47;;;;;;;14.80;49.68;96558.16;4441607;32;20169;-74
2022/04/07 00:38:35;;;;;;;16.20;7.57;;;;;;;14.83;49.07;96557.91;4441288;32;20128;-73
2022/04/07 00:41:02;;;;;;;13.60;6.75;;;;;;;15.69;47.13;96558.41;4441583;32;20408;-73
2022/04/07 00:43:36;;;;;;;11.23;5.60;;;;;;;15.51;47.76;96553.81;4441682;32;20148;-73
2022/04/07 00:46:04;;;;;;;13.02;5.82;;;;;;;13.12;55.66;96543.03;4441130;32;20153;-74
2022/04/07 00:48:35;;;;;;;15.20;7.18;;;;;;;15.18;48.98;96543.72;4441434;32;20164;-73
2022/04/07 00:51:03;;;;;;;12.35;5.90;;;;;;;15.36;47.74;96538.72;4441257;32;20154;-74
2022/04/07 00:53:30;;;;;;;14.02;6.37;;;;;;;15.75;46.36;96530.09;4427636;32;20100;-74
2022/04/07 00:56:01;;;;;;;14.30;6.95;;;;;;;15.58;46.23;96521.12;4441481;32;20157;-74
2022/04/07 00:58:29;;;;;;;12.73;7.00;;;;;;;15.17;47.10;96519.50;4441288;32;20085;-74
2022/04/07 01:00:57;;;;;;;13.15;6.35;;;;;;;15.59;46.61;96514.97;4441410;32;20112;-74
2022/04/07 01:03:25;;;;;;;16.87;8.38;;;;;;;15.07;47.60;96517.81;4427735;32;20496;-74
2022/04/07 01:05:51;;;;;;;18.08;8.90;;;;;;;15.70;45.99;96518.44;4441059;32;20085;-74
2022/04/07 01:08:19;;;;;;;14.77;8.07;;;;;;;15.57;45.85;96514.28;4441591;32;20128;-74
2022/04/07 01:10:47;;;;;;;16.85;7.62;;;;;;;15.30;47.07;96516.66;4441452;32;20141;-73
2022/04/07 01:13:15;;;;;;;13.07;6.97;;;;;;;16.18;44.69;96510.69;4441025;32;20085;-73
2022/04/07 01:15:42;;;;;;;12.40;5.78;;;;;;;15.13;46.97;96507.75;4441241;32;20147;-74
2022/04/07 01:18:10;;;;;;;12.02;5.55;;;;;;;15.80;45.20;96496.72;4441520;32;20089;-73
2022/04/07 01:20:37;;;;;;;11.32;5.12;;;;;;;14.91;47.22;96489.75;4441053;32;20112;-73
2022/04/07 01:23:04;;;;;;;10.50;4.97;;;;;;;15.74;45.47;96489.47;4427484;32;20153;-73
2022/04/07 01:25:33;;;;;;;9.48;4.35;;;;;;;15.95;44.71;96497.16;4427345;32;20126;-73
2022/04/07 01:27:59;;;;;;;10.05;4.45;;;;;;;15.71;45.22;96502.72;4441017;32;20128;-73
2022/04/07 01:30:26;;;;;;;10.73;4.43;;;;;;;15.07;46.68;96490.06;4440492;32;20503;-73
2022/04/07 01:32:58;;;;;;;9.30;4.30;;;;;;;14.49;48.17;96494.97;4441041;32;20153;-73
2022/04/07 01:35:26;;;;;;;12.70;4.15;;;;;;;13.98;49.32;96482.72;4441043;32;20152;-73
2022/04/07 01:37:54;;;;;;;9.25;4.15;;;;;;;14.52;48.45;96479.16;4441313;32;20107;-74
2022/04/07 01:40:25;;;;;;;11.18;3.95;;;;;;;14.86;47.49;96471.13;4426969;32;20161;-74
2022/04/07 01:42:55;;;;;;;10.13;4.37;;;;;;;14.55;47.98;96475.47;4441372;32;20141;-73
2022/04/07 01:45:22;;;;;;;15.60;3.90;;;;;;;14.79;47.24;96468.25;4441184;32;20152;-73
2022/04/07 01:47:50;;;;;;;8.85;4.00;;;;;;;13.51;51.05;96458.03;4440943;32;20108;-74
2022/04/07 01:50:19;;;;;;;8.52;3.80;;;;;;;14.27;48.84;96453.56;4424407;32;20168;-74
2022/04/07 01:52:47;;;;;;;10.30;4.30;;;;;;;13.99;50.10;96458.41;4424446;32;20116;-73
2022/04/07 01:55:15;;;;;;;9.82;4.10;;;;;;;13.21;53.12;96443.13;4425419;32;20093;-73
2022/04/07 01:57:44;;;;;;;10.40;4.40;;;;;;;13.73;52.28;96437.22;4425865;32;20164;-73
2022/04/07 02:00:12;;;;;;;11.57;4.35;;;;;;;14.31;50.51;96439.38;4425797;32;20149;-74
2022/04/07 02:02:39;;;;;;;8.73;4.10;;;;;;;14.72;49.28;96430.75;4425409;32;20090;-73
2022/04/07 02:05:11;;;;;;;8.95;4.20;;;;;;;14.55;49.71;96429.56;4425593;32;20089;-73
2022/04/07 02:07:40;;;;;;;9.80;4.07;;;;;;;14.56;49.49;96436.41;4425853;32;20086;-73
2022/04/07 02:10:09;;;;;;;10.57;4.28;;;;;;;14.24;50.52;96427.88;4425394;32;20077;-73
2022/04/07 02:12:37;;;;;;;9.98;4.25;;;;;;;12.70;56.01;96421.16;4425553;32;20149;-73
2022/04/07 02:15:05;;;;;;;10.02;4.50;;;;;;;12.89;55.76;96417.16;4425509;32;20153;-73
2022/04/07 02:17:32;;;;;;;11.38;4.20;;;;;;;14.02;52.02;96402.87;4425588;32;20082;-73
2022/04/07 02:20:00;;;;;;;8.05;3.80;;;;;;;14.02;51.57;96400.28;4425726;32;20138;-73
2022/04/07 02:22:28;;;;;;;9.15;3.90;;;;;;;15.19;48.11;96398.09;4424118;32;20176;-73
2022/04/07 02:24:56;;;;;;;8.43;3.80;;;;;;;15.21;47.56;96406.59;4425487;32;20112;-73
2022/04/07 02:27:23;;;;;;;8.55;4.00;;;;;;;14.46;48.98;96394.00;4425696;32;20632;-73
2022/04/07 02:29:51;;;;;;;10.40;4.20;;;;;;;13.82;52.05;96376.84;4424135;32;20149;-73
2022/04/07 02:32:18;;;;;;;9.27;4.37;;;;;;;14.49;49.82;96372.19;4425443;32;20160;-74
2022/04/07 02:34:45;;;;;;;9.80;4.55;;;;;;;14.35;50.16;96381.09;4425408;32;20137;-74
2022/04/07 02:37:12;;;;;;;9.70;4.55;;;;;;;15.53;46.78;96379.53;4424084;32;20086;-74
2022/04/07 02:39:39;;;;;;;9.55;4.57;;;;;;;14.33;50.22;96367.44;4425550;32;20138;-73
2022/04/07 02:42:06;;;;;;;9.90;4.30;;;;;;;14.20;50.85;96359.88;4425000;32;20104;-74
2022/04/07 02:44:33;;;;;;;9.85;4.50;;;;;;;14.76;49.23;96356.84;4425075;32;20150;-73
2022/04/07 02:47:00;;;;;;;9.23;4.50;;;;;;;15.56;46.24;96348.88;4425592;32;20099;-73
2022/04/07 02:49:27;;;;;;;10.23;5.05;;;;;;;15.85;45.85;96348.91;4431821;32;20141;-73
2022/04/07 02:51:54;;;;;;;10.15;4.72;;;;;;;15.21;47.38;96338.22;4440350;32;20164;-74
2022/04/07 02:54:21;;;;;;;10.60;4.78;;;;;;;15.06;47.91;96329.97;4440725;32;20119;-74
2022/04/07 02:56:48;;;;;;;11.65;4.62;;;;;;;15.26;47.86;96320.44;4440687;32;20832;-74
2022/04/07 02:59:15;;;;;;;10.05;4.95;;;;;;;15.74;46.72;96319.63;4440411;32;20126;-74
2022/04/07 03:01:43;;;;;;;9.13;3.80;;;;;;;15.69;46.45;96314.00;4440682;32;20103;-73
2022/04/07 03:04:11;;;;;;;8.73;3.75;;;;;;;14.87;46.90;96316.97;4440657;32;20504;-74
2022/04/07 03:06:38;;;;;;;7.82;3.65;;;;;;;14.28;47.44;96304.75;4440303;32;20101;-74
2022/04/07 03:09:05;;;;;;;8.57;4.05;;;;;;;15.30;45.34;96320.00;4440646;32;20433;-74
2022/04/07 03:11:31;;;;;;;9.95;4.60;;;;;;;15.92;43.93;96328.34;4440265;32;20430;-74
2022/04/07 03:13:58;;;;;;;10.60;4.62;;;;;;;16.67;41.81;96321.34;4440506;32;20151;-74
2022/04/07 03:16:25;;;;;;;9.63;3.85;;;;;;;16.56;41.87;96324.97;4440611;32;20099;-74
2022/04/07 03:18:51;;;;;;;10.30;4.27;;;;;;;15.98;42.71;96322.59;4440186;32;20090;-73
2022/04/07 03:21:18;;;;;;;10.05;4.40;;;;;;;15.59;43.17;96320.00;4440601;32;20165;-74
2022/04/07 03:23:45;;;;;;;8.98;4.10;;;;;;;16.22;41.80;96329.09;4426618;32;20113;-74
2022/04/07 03:26:12;;;;;;;9.63;3.70;;;;;;;16.34;41.45;96323.56;4440161;32;20409;-74
2022/04/07 03:28:39;;;;;;;10.85;4.75;;;;;;;16.51;40.46;96327.19;4440475;32;20409;-74
2022/04/07 03:31:06;;;;;;;9.30;3.90;;;;;;;16.38;40.53;96330.13;4440295;32;20116;-74
2022/04/07 03:33:33;;;;;;;9.05;4.00;;;;;;;16.85;40.08;96326.66;4440084;32;20107;-74
2022/04/07 03:36:00;;;;;;;9.90;3.83;;;;;;;16.66;39.93;96320.53;4440277;32;20252;-74
2022/04/07 03:38:26;;;;;;;10.82;4.22;;;;;;;16.37;40.91;96312.84;4440458;32;20073;-74
2022/04/07 03:40:53;;;;;;;9.85;4.45;;;;;;;16.39;40.78;96315.34;4439930;32;20485;-74
2022/04/07 03:43:21;;;;;;;11.25;4.62;;;;;;;16.18;41.80;96312.94;4440343;32;20102;-74
2022/04/07 03:45:48;;;;;;;11.18;4.87;;;;;;;16.00;42.48;96309.44;4440165;32;20175;-74
2022/04/07 03:48:15;;;;;;;9.82;4.57;;;;;;;15.19;44.90;96316.72;4439879;32;20117;-73
2022/04/07 03:50:42;;;;;;;9.65;4.57;;;;;;;15.41;45.27;96324.25;4439994;32;20145;-73
2022/04/07 03:53:09;;;;;;;9.80;4.40;;;;;;;14.90;47.01;96312.34;4439717;32;20500;-74
2022/04/07 03:55:36;;;;;;;12.02;4.85;;;;;;;15.00;47.33;96314.97;4439068;32;20113;-74
2022/04/07 03:58:03;;;;;;;11.68;5.10;;;;;;;15.83;45.90;96319.59;4440171;32;20153;-74
2022/04/07 04:00:30;;;;;;;10.82;5.00;;;;;;;15.84;46.47;96320.41;4425826;32;20186;-74
2022/04/07 04:02:57;;;;;;;11.60;4.30;;;;;;;14.75;49.98;96306.69;4439996;32;20157;-73
2022/04/07 04:05:24;;;;;;;10.20;4.05;;;;;;;14.95;50.55;96307.56;4439784;32;20150;-73
2022/04/07 04:07:51;;;;;;;9.43;4.62;;;;;;;14.76;51.57;96304.91;4439701;32;20082;-73
2022/04/07 04:10:18;;;;;;;9.38;4.00;;;;;;;14.13;54.12;96299.91;4439968;32;20098;-73
2022/04/07 04:12:45;;;;;;;8.93;3.80;;;;;;;14.84;52.25;96315.47;4439716;32;20157;-73
2022/04/07 04:15:12;;;;;;;9.40;4.15;;;;;;;14.22;55.04;96313.88;4439377;32;20089;-73
2022/04/07 04:17:39;;;;;;;9.43;3.78;;;;;;;14.28;54.89;96317.72;4439891;32;20151;-73
2022/04/07 04:20:07;;;;;;;11.20;3.83;;;;;;;15.05;52.91;96323.97;4439827;32;20086;-73
2022/04/07 04:22:34;;;;;;;9.70;3.22;;;;;;;15.29;52.52;96326.16;4439434;32;20501;-73
2022/04/07 04:25:01;;;;;;;9.82;3.72;;;;;;;14.99;53.59;96326.28;4439713;32;20229;-73
2022/04/07 04:27:28;;;;;;;8.23;3.37;;;;;;;14.87;54.37;96330.75;4425822;32;20390;-73
2022/04/07 04:29:56;;;;;;;8.88;3.33;;;;;;;14.94;54.17;96331.06;4439339;32;20431;-74
2022/04/07 04:32:23;;;;;;;9.32;3.50;;;;;;;15.15;53.82;96336.97;4439542;32;20104;-73
2022/04/07 04:34:49;;;;;;;7.78;3.05;;;;;;;15.75;52.39;96339.47;4439484;32;20180;-74
2022/04/07 04:37:16;;;;;;;6.62;2.72;;;;;;;16.49;50.56;96348.19;4439201;32;20453;-73
2022/04/07 04:39:43;;;;;;;7.53;2.85;;;;;;;15.04;55.28;96342.28;4439531;32;20108;-74
2022/04/07 04:42:10;;;;;;;6.80;2.33;;;;;;;15.17;55.37;96345.44;4439575;32;20432;-73
2022/04/07 04:44:37;;;;;;;6.15;2.58;;;;;;;14.37;58.26;96342.87;4438925;32;20409;-73
2022/04/07 04:47:05;;;;;;;7.10;2.50;;;;;;;14.63;57.79;96338.91;4439417;32;20069;-73
2022/04/07 04:49:31;;;;;;;5.72;2.30;;;;;;;14.58;59.13;96343.69;4437142;32;20149;-73
2022/04/07 04:51:58;;;;;;;5.35;2.22;;;;;;;14.43;59.52;96337.16;4439265;32;20157;-74
2022/04/07 04:54:25;;;;;;;6.28;2.33;;;;;;;14.83;58.31;96349.34;4439153;32;20103;-74
2022/04/07 04:56:52;;;;;;;7.55;2.00;;;;;;;14.93;58.08;96358.81;4439030;32;20526;-74
2022/04/07 04:59:19;;;;;;;4.12;1.98;;;;;;;15.92;54.71;96359.53;4439230;32;20141;-73
2022/04/07 05:01:46;;;;;;;6.82;2.50;;;;;;;15.10;57.64;96359.94;4439166;32;20107;-74
2022/04/07 05:04:14;;;;;;;6.10;2.25;;;;;;;15.84;55.26;96372.41;4438806;32;20143;-74
2022/04/07 05:06:41;;;;;;;4.35;1.75;;;;;;;15.04;58.56;96361.28;4441254;32;20407;-73
2022/04/07 05:09:08;;;;;;;6.72;2.00;;;;;;;15.44;57.07;96362.97;4441389;32;20117;-73
2022/04/07 05:11:35;;;;;;;4.68;2.00;;;;;;;15.02;59.13;96360.59;4441067;32;20160;-73
2022/04/07 05:14:02;;;;;;;4.43;2.08;;;;;;;14.98;59.32;96380.00;4441255;32;20614;-73
2022/04/07 05:16:29;;;;;;;4.45;1.58;;;;;;;15.22;58.88;96377.06;4441401;32;20114;-73
2022/04/07 05:18:56;;;;;;;5.57;2.15;;;;;;;15.13;58.69;96366.66;4441169;32;20158;-73
2022/04/07 05:21:23;;;;;;;4.93;1.98;;;;;;;15.20;58.83;96372.91;4441332;32;20141;-73
2022/04/07 05:23:50;;;;;;;4.97;1.85;;;;;;;15.47;58.06;96380.91;4441302;32;20148;-74
2022/04/07 05:26:16;;;;;;;5.35;2.12;;;;;;;14.92;59.75;96375.34;4441096;32;20149;-73
2022/04/07 05:28:43;;;;;;;2.62;1.37;;;;;;;15.62;57.43;96383.94;4441314;32;20175;-73
2022/04/07 05:31:11;;;;;;;4.43;1.75;;;;;;;15.97;56.05;96377.34;4441302;32;20165;-73
2022/04/07 05:33:38;;;;;;;4.32;1.65;;;;;;;15.56;57.34;96387.06;4440778;32;20145;-73
2022/04/07 05:36:05;;;;;;;3.37;1.58;;;;;;;15.44;57.62;96388.97;4441209;32;20376;-73
2022/04/07 05:38:32;;;;;;;4.30;1.50;;;;;;;14.89;58.70;96386.00;4441306;32;20124;-73
2022/04/07 05:40:59;;;;;;;3.72;1.30;;;;;;;15.14;58.42;96376.06;4440869;32;20500;-73
2022/04/07 05:43:26;;;;;;;2.30;1.20;;;;;;;14.87;59.56;96389.66;4441220;32;20093;-73
2022/04/07 05:45:53;;;;;;;1.90;1.08;;;;;;;15.14;58.27;96395.06;4440836;32;20107;-74
2022/04/07 05:48:20;;;;;;;3.45;1.42;;;;;;;15.28;57.33;96404.25;4441320;32;20090;-74
2022/04/07 05:50:47;;;;;;;5.30;1.42;;;;;;;15.72;55.85;96400.34;4440830;32;20169;-75
2022/04/07 05:53:14;;;;;;;3.45;1.50;;;;;;;15.93;55.74;96408.00;4440690;32;20457;-72
2022/04/07 05:55:41;;;;;;;4.00;1.40;;;;;;;15.97;55.38;96400.75;4441030;32;20483;-73
2022/04/07 05:58:17;;;;;;;2.33;1.30;;;;;;;15.95;54.79;96408.72;4438625;32;20142;-73
2022/04/07 06:00:46;;;;;;;3.53;1.40;;;;;;;15.83;55.67;96407.19;4438183;32;20097;-73
2022/04/07 06:03:15;;;;;;;3.78;1.20;;;;;;;16.16;54.89;96406.75;4440554;32;20157;-73
2022/04/07 06:05:42;;;;;;;2.12;1.10;;;;;;;15.88;55.93;96413.63;4440480;32;20082;-73
2022/04/07 06:08:09;;;;;;;2.25;1.20;;;;;;;15.46;56.92;96399.22;4440243;32;20157;-73
2022/04/07 06:10:36;;;;;;;2.92;1.10;;;;;;;16.03;55.42;96413.19;4439640;32;20157;-73
2022/04/07 06:13:03;;;;;;;2.00;1.08;;;;;;;16.21;54.55;96414.13;4440128;32;20468;-75
2022/04/07 06:15:30;;;;;;;1.75;1.10;;;;;;;15.50;57.01;96413.59;4439939;32;20125;-75
2022/04/07 06:17:57;;;;;;;1.70;0.95;;;;;;;16.32;54.75;96421.78;4439895;32;20093;-76
2022/04/07 06:20:24;;;;;;;4.03;1.20;;;;;;;16.56;53.29;96417.88;4439443;32;20134;-76
2022/04/07 06:22:51;;;;;;;2.35;1.10;;;;;;;16.38;53.81;96423.03;4439917;32;20199;-76
2022/04/07 06:25:18;;;;;;;1.98;1.00;;;;;;;15.92;55.82;96427.16;4426245;32;20093;-76
2022/04/07 06:27:46;;;;;;;1.60;1.00;;;;;;;15.86;55.29;96428.56;4439754;32;20431;-77
2022/04/07 06:30:16;;;;;;;2.58;1.10;;;;;;;16.36;53.77;96419.72;4439335;32;20097;-76
2022/04/07 06:32:44;;;;;;;3.90;1.12;;;;;;;17.50;50.11;96419.34;4430792;32;301011;-77
2022/04/07 06:35:13;;;;;;;2.10;0.90;;;;;;;16.68;52.27;96411.56;4439852;32;20093;-75
2022/04/07 06:37:58;;;;;;;3.35;1.00;;;;;;;16.57;52.59;96424.72;4426319;32;20117;-75
2022/04/07 06:40:27;;;;;;;2.20;1.00;;;;;;;16.96;51.26;96418.44;4439272;32;20097;-75
2022/04/07 06:42:56;;;;;;;2.17;1.02;;;;;;;16.65;52.02;96419.63;4440074;32;20515;-76
2022/04/07 06:45:27;;;;;;;2.40;1.02;;;;;;;16.19;53.68;96423.88;4440292;32;20089;-75
2022/04/07 06:47:55;;;;;;;2.12;1.00;;;;;;;16.82;51.44;96428.53;4426294;32;20164;-75
2022/04/07 06:50:26;;;;;;;1.77;1.00;;;;;;;16.53;52.27;96420.78;4438464;32;20111;-76
2022/04/07 06:52:54;;;;;;;1.70;0.70;;;;;;;15.61;55.42;96423.88;4426626;32;20097;-75
2022/04/07 06:55:21;;;;;;;2.60;0.80;;;;;;;15.21;55.56;96411.78;4439927;32;20101;-75
2022/04/07 06:57:53;;;;;;;1.95;0.82;;;;;;;14.66;58.68;96424.28;4439503;32;20157;-75
2022/04/07 07:00:22;;;;;;;1.55;0.80;;;;;;;15.44;57.01;96432.34;4439167;32;20111;-75
2022/04/07 07:02:53;;;;;;;1.92;0.82;;;;;;;15.38;56.26;96430.25;4439738;32;20145;-75
2022/04/07 07:05:22;;;;;;;1.40;0.75;;;;;;;15.33;55.73;96433.28;4439978;32;20082;-75
2022/04/07 07:07:49;;;;;;;1.87;0.80;;;;;;;14.94;57.79;96435.75;4440045;32;20120;-75
2022/04/07 07:10:28;;;;;;;2.85;0.75;;;;;;;14.97;57.84;96438.09;4438852;32;20573;-75
2022/04/07 07:12:55;;;;;;;1.15;0.90;;;;;;;14.35;59.40;96431.22;4439741;32;20103;-76
2022/04/07 07:15:22;;;;;;;1.65;0.80;;;;;;;14.82;58.96;96436.00;4439711;32;20089;-74
2022/04/07 07:17:51;;;;;;;2.55;1.77;;;;;;;14.75;58.52;96441.69;4439756;32;20496;-75
2022/04/07 07:20:18;;;;;;;1.80;0.90;;;;;;;14.64;60.20;96443.56;4439050;32;20144;-77
2022/04/07 07:22:45;;;;;;;3.78;1.10;;;;;;;15.24;57.85;96434.87;4439693;32;20114;-77
2022/04/07 07:25:12;;;;;;;2.33;1.12;;;;;;;15.07;58.67;96439.91;4439461;32;20069;-78
2022/04/07 07:27:41;;;;;;;2.75;1.12;;;;;;;15.51;56.67;96436.84;4439787;32;20160;-77
2022/04/07 07:30:10;;;;;;;2.55;0.95;;;;;;;15.57;57.14;96444.09;4437719;32;20101;-77
2022/04/07 07:32:38;;;;;;;3.03;1.20;;;;;;;15.79;56.83;96450.84;4439415;32;20192;-77
2022/04/07 07:35:06;;;;;;;2.72;1.10;;;;;;;16.39;54.39;96461.09;4439829;32;20074;-77
2022/04/07 07:37:33;;;;;;;2.55;1.02;;;;;;;15.89;56.57;96459.47;4439873;32;20093;-77
2022/04/07 07:40:08;;;;;;;2.83;1.20;;;;;;;15.81;56.64;96467.13;4438622;32;20105;-77
2022/04/07 07:42:36;;;;;;;1.12;0.88;;;;;;;16.29;55.13;96481.94;4439677;32;20085;-77
2022/04/07 07:45:04;;;;;;;1.40;0.90;;;;;;;16.08;55.40;96478.66;4439191;32;20164;-77
2022/04/07 07:47:34;;;;;;;2.10;1.00;;;;;;;16.92;52.71;96478.81;4439778;32;20112;-76
2022/04/07 07:50:03;;;;;;;2.28;0.95;;;;;;;17.59;50.40;96483.66;4421941;32;20169;-77
2022/04/07 07:52:30;;;;;;;4.00;1.50;;;;;;;17.04;51.73;96491.50;4423989;32;20109;-77
2022/04/07 07:54:56;;;;;;;3.42;1.30;;;;;;;16.75;53.53;96498.59;4422832;32;20137;-77
2022/04/07 07:57:23;;;;;;;1.02;0.80;;;;;;;17.73;50.31;96503.22;4423758;32;20112;-79
2022/04/07 07:59:51;;;;;;;1.65;0.90;;;;;;;17.41;50.83;96502.84;4423862;32;20149;-80
2022/04/07 08:02:21;;;;;;;1.65;0.98;;;;;;;17.78;50.16;96505.41;4424917;32;20151;-83
2022/04/07 08:04:48;;;;;;;2.75;1.10;;;;;;;18.18;49.17;96508.41;4425126;32;20165;-80
2022/04/07 08:07:15;;;;;;;2.42;1.10;;;;;;;18.58;47.91;96504.47;4424959;32;20108;-82
2022/04/07 08:09:42;;;;;;;1.33;0.90;;;;;;;17.82;50.57;96507.56;4423563;32;20135;-80
2022/04/07 08:12:09;;;;;;;2.50;1.00;;;;;;;18.34;49.22;96504.28;4423861;32;20101;-78
2022/04/07 08:14:40;;;;;;;1.67;0.98;;;;;;;19.68;45.50;96502.97;4424189;32;20096;-79
2022/04/07 08:17:19;;;;;;;2.53;1.10;;;;;;;20.16;44.17;96502.22;4424363;32;20160;-79
2022/04/07 08:19:46;;;;;;;3.33;1.00;;;;;;;18.41;47.77;96487.87;4425831;32;20090;-79
2022/04/07 08:22:13;;;;;;;2.92;1.20;;;;;;;17.86;50.32;96477.63;4429981;32;20110;-78
2022/04/07 08:24:40;;;;;;;4.20;1.30;;;;;;;17.62;50.78;96485.16;4431502;32;20098;-78
2022/04/07 08:27:07;;;;;;;4.10;1.17;;;;;;;17.41;51.82;96489.81;4427567;32;20124;-78
2022/04/07 08:29:38;;;;;;;1.90;1.10;;;;;;;18.00;49.59;96478.06;4423706;32;20085;-78
2022/04/07 08:32:05;;;;;;;1.73;0.90;;;;;;;18.32;49.18;96480.13;4427041;32;20414;-78
2022/04/07 08:34:32;;;;;;;2.62;1.20;;;;;;;18.69;47.85;96487.75;4435767;32;20116;-79
2022/04/07 08:36:59;;;;;;;3.30;1.30;;;;;;;18.40;50.00;96488.84;4431475;32;20125;-78
2022/04/07 08:39:26;;;;;;;3.40;1.37;;;;;;;18.58;48.60;96490.59;4426269;32;20360;-80
2022/04/07 08:41:54;;;;;;;1.83;1.20;;;;;;;18.92;47.33;96488.88;4426960;32;20149;-78
2022/04/07 08:44:24;;;;;;;3.78;1.20;;;;;;;17.43;50.72;96488.69;4433282;32;20399;-79
2022/04/07 08:46:56;;;;;;;3.80;1.30;;;;;;;17.86;51.13;96482.84;4436336;32;20082;-80
2022/04/07 08:49:37;;;;;;;4.18;1.30;;;;;;;18.53;48.92;96482.41;4436486;32;20093;-80
2022/04/07 08:52:08;;;;;;;2.92;1.40;;;;;;;17.54;50.88;96479.84;4436828;32;20069;-79
2022/04/07 08:54:35;;;;;;;3.62;1.62;;;;;;;17.74;50.84;96483.19;4433874;32;20086;-79
2022/04/07 08:57:03;;;;;;;2.90;1.30;;;;;;;17.55;51.55;96481.50;4440471;32;20903;-79
2022/04/07 08:59:32;;;;;;;3.22;1.20;;;;;;;18.19;48.94;96480.53;4442190;32;20072;-78
2022/04/07 09:02:08;;;;;;;2.15;1.33;;;;;;;17.87;50.74;96483.66;4441425;32;20102;-78
2022/04/07 09:04:36;;;;;;;3.45;1.27;;;;;;;18.38;48.47;96485.56;4441335;32;20452;-78
2022/04/07 09:07:04;;;;;;;1.95;1.20;;;;;;;19.17;47.21;96489.84;4441527;32;20098;-79
2022/04/07 09:09:32;;;;;;;3.92;1.50;;;;;;;19.67;46.21;96483.81;4442490;32;20573;-79
2022/04/07 09:11:59;;;;;;;3.08;1.15;;;;;;;19.25;46.76;96487.25;4443233;32;20154;-82
2022/04/07 09:14:32;;;;;;;2.75;1.05;;;;;;;20.05;44.32;96484.22;4432189;32;20074;-80
2022/04/07 09:16:59;;;;;;;1.80;1.20;;;;;;;19.51;46.36;96475.91;4447798;32;20070;-81
2022/04/07 09:19:27;;;;;;;1.65;1.00;;;;;;;18.94;47.13;96473.06;4445642;32;20136;-80
2022/04/07 09:22:13;;;;;;;4.53;1.58;;;;;;;18.85;47.52;96474.81;4438872;32;20124;-79
2022/04/07 09:24:47;;;;;;;2.85;1.40;;;;;;;18.85;47.52;96472.19;4453015;32;20111;-79
2022/04/07 09:27:15;;;;;;;3.83;1.37;;;;;;;19.08;47.10;96470.66;4454341;32;20080;-79
2022/04/07 09:29:44;;;;;;;6.72;1.30;;;;;;;19.33;45.49;96458.50;4439532;32;20129;-78
2022/04/07 09:32:23;;;;;;;2.58;1.08;;;;;;;19.07;47.13;96458.56;4449371;32;20076;-79
2022/04/07 09:34:57;;;;;;;2.70;1.17;;;;;;;19.94;43.80;96461.78;4448034;32;20692;-79
2022/04/07 09:37:29;;;;;;;3.62;1.10;;;;;;;19.58;44.75;96462.06;4444715;32;20096;-78
2022/04/07 09:40:11;;;;;;;1.10;0.80;;;;;;;19.93;43.28;96457.53;4448006;32;20177;-78
2022/04/07 09:42:38;;;;;;;2.80;1.20;;;;;;;19.74;43.39;96449.97;4446914;32;20137;-78
2022/04/07 09:45:10;;;;;;;2.25;1.20;;;;;;;20.11;43.26;96462.63;4440568;32;20476;-79
2022/04/07 09:47:39;;;;;;;1.80;1.25;;;;;;;20.56;42.37;96470.00;4453405;32;20088;-78
2022/04/07 09:50:07;;;;;;;4.15;1.60;;;;;;;19.44;44.20;96460.00;4451790;32;20081;-78
2022/04/07 09:52:38;;;;;;;2.80;1.50;;;;;;;20.54;42.98;96455.44;4450768;32;20061;-79
2022/04/07 09:55:06;;;;;;;2.72;1.45;;;;;;;20.34;42.78;96460.97;4452399;32;20072;-78
2022/04/07 09:57:34;;;;;;;6.60;1.55;;;;;;;19.81;43.69;96456.22;4453054;32;20065;-78
2022/04/07 10:00:04;;;;;;;4.43;1.62;;;;;;;19.45;45.04;96452.97;4449198;32;20116;-84
2022/04/07 10:02:32;;;;;;;3.70;1.40;;;;;;;19.75;45.74;96468.12;4439933;32;20112;-80
2022/04/07 10:05:00;;;;;;;2.22;1.27;;;;;;;20.54;43.43;96453.62;4440110;32;20452;-80
2022/04/07 10:07:27;;;;;;;3.45;1.77;;;;;;;20.93;42.85;96463.34;4440052;32;20098;-81
2022/04/07 10:09:54;;;;;;;2.55;1.40;;;;;;;22.07;40.26;96447.91;4425606;32;20109;-82
2022/04/07 10:12:21;;;;;;;2.75;1.62;;;;;;;22.21;37.89;96448.94;4425705;32;20420;-81
2022/04/07 10:14:49;;;;;;;3.25;1.33;;;;;;;22.01;39.55;96453.84;4426105;32;20073;-84
2022/04/07 10:17:16;;;;;;;1.50;1.00;;;;;;;21.51;39.71;96463.00;4443529;32;20149;-78
2022/04/07 10:19:57;;;;;;;2.83;1.00;;;;;;;22.03;38.59;96449.22;4450229;32;20061;-79
2022/04/07 10:22:37;;;;;;;1.92;0.90;;;;;;;22.64;36.31;96447.38;4440416;32;20078;-79
2022/04/07 10:25:19;;;;;;;2.10;0.90;;;;;;;21.98;38.40;96455.97;4439710;32;20110;-82
2022/04/07 10:27:51;;;;;;;1.50;0.88;;;;;;;21.02;38.36;96460.53;4453606;32;20069;-82
2022/04/07 10:30:18;;;;;;;1.12;0.82;;;;;;;21.54;37.94;96452.16;4437285;32;20486;-83
2022/04/07 10:32:46;;;;;;;3.10;1.05;;;;;;;21.43;38.57;96446.47;4762813;26;20080;-83
2022/04/07 10:35:34;;;;;;;1.70;1.00;;;;;;;20.04;42.06;96446.75;4443439;32;20433;-85
2022/04/07 10:38:01;;;;;;;;;;;;;;;21.15;38.98;96443.44;4448722;32;20085;-80
2022/04/07 10:40:33;;;;;;;0.93;0.80;;;;;;;21.59;38.22;96435.91;4443187;32;20429;-82
2022/04/07 10:43:18;;;;;;;1.55;0.90;;;;;;;21.50;39.14;96427.25;4464945;32;20066;-81
2022/04/07 10:46:06;;;;;;;1.42;1.00;;;;;;;21.80;37.93;96430.84;4463138;32;20082;-81
2022/04/07 10:48:37;;;;;;;3.55;1.10;;;;;;;21.50;38.13;96432.50;4457049;32;20108;-82
2022/04/07 10:51:08;;;;;;;1.52;1.00;;;;;;;21.22;39.76;96426.06;4460258;32;20111;-82
2022/04/07 10:53:40;;;;;;;2.58;1.40;;;;;;;22.45;37.49;96429.53;4464005;32;20147;-84
2022/04/07 10:56:24;;;;;;;5.10;1.20;;;;;;;21.88;37.40;96415.00;4456891;32;20053;-84
2022/04/07 10:58:55;;;;;;;2.80;1.30;;;;;;;22.42;35.96;96416.72;4464944;32;20113;-83
2022/04/07 11:01:31;;;;;;;4.15;1.23;;;;;;;23.19;35.26;96414.62;4464017;32;20097;-79
2022/04/07 11:04:22;;;;;;;2.08;1.10;;;;;;;22.79;35.86;96423.75;4465570;32;20087;-81
2022/04/07 11:09:55;;;;;;;2.60;1.20;;;;;;;23.45;33.95;96413.28;4465182;32;20199;-81
2022/04/07 11:12:28;;;;;;;1.55;1.00;;;;;;;23.74;33.77;96412.41;4451073;32;20165;-80
2022/04/07 11:15:02;;;;;;;1.42;0.80;;;;;;;22.40;33.68;96402.97;4466331;32;20076;-80
2022/04/07 11:17:32;;;;;;;1.12;0.85;;;;;;;21.54;35.11;96397.03;4467809;32;20099;-83
2022/04/07 11:20:15;;;;;;;1.52;1.10;;;;;;;21.73;35.57;96395.78;4467296;32;20076;-81
2022/04/07 11:22:50;;;;;;;0.95;0.57;;;;;;;21.88;34.44;96398.44;4455776;32;20120;-81
2022/04/07 11:25:37;;;;;;;1.00;0.70;;;;;;;22.73;31.99;96396.37;4468224;32;20145;-81
2022/04/07 11:28:09;;;;;;;0.85;0.70;;;;;;;22.41;31.53;96399.34;4469294;32;20080;-81
2022/04/07 11:30:40;;;;;;;0.95;0.60;;;;;;;22.26;32.76;96393.25;4468104;32;20109;-81
2022/04/07 11:33:29;;;;;;;1.40;0.80;;;;;;;22.28;32.64;96396.50;4468240;32;20068;-80
2022/04/07 11:35:59;;;;;;;3.17;0.95;;;;;;;22.39;32.90;96386.38;4469005;32;20072;-81
2022/04/07 11:38:30;;;;;;;1.73;0.80;;;;;;;22.81;33.81;96395.47;4467754;32;20077;-80
2022/04/07 11:41:07;;;;;;;0.60;0.60;;;;;;;22.32;32.91;96393.34;4465906;32;20101;-82
2022/04/07 11:43:40;;;;;;;1.90;1.00;;;;;;;21.83;32.27;96372.72;4462698;32;20523;-80